Time;durP1;ratioP1;P1;durP2;ratioP2;P2;SDS_P1;SDS_P2;PMS_P1;PMS_P2;Temp;Humidity;BMP_temperature;BMP_pressure;BME280_temperature;BME280_humidity;BME280_pressure;Samples;Min_cycle;Max_cycle;Signal;HPM_P1;HPM_P2
2022/01/05 00:01:53;;;;;;;5.57;0.38;;;;;;;-0.21;56.54;99537.00;5026591;28;20113;-72
2022/01/05 00:04:21;;;;;;;7.30;0.75;;;;;;;-0.68;58.18;99530.91;5016068;28;20515;-74
2022/01/05 00:06:46;;;;;;;7.47;0.22;;;;;;;-0.19;56.74;99537.81;5026604;28;20684;-74
2022/01/05 00:09:12;;;;;;;2.90;0.30;;;;;;;-0.60;57.59;99529.06;5022625;28;20037;-74
2022/01/05 00:11:41;;;;;;;5.90;0.82;;;;;;;-0.94;59.00;99525.31;5019031;28;20033;-73
2022/01/05 00:14:06;;;;;;;5.55;0.50;;;;;;;-0.64;57.93;99519.75;5030441;28;20049;-73
2022/01/05 00:16:32;;;;;;;4.93;0.20;;;;;;;-0.48;57.25;99522.03;5018477;28;20467;-73
2022/01/05 00:19:00;;;;;;;8.07;0.57;;;;;;;-0.64;57.73;99526.56;5028656;28;20041;-72
2022/01/05 00:21:28;;;;;;;6.43;0.50;;;;;;;-0.50;57.37;99516.06;5027985;28;20032;-73
2022/01/05 00:23:53;;;;;;;2.47;0.30;;;;;;;-0.68;57.94;99518.09;5027007;28;20045;-72
2022/01/05 00:26:25;;;;;;;6.47;0.80;;;;;;;-0.39;56.89;99504.78;5028718;28;20033;-74
2022/01/05 00:28:53;;;;;;;10.65;1.25;;;;;;;-0.91;58.24;99513.28;5010817;28;21134;-73
2022/01/05 00:31:18;;;;;;;4.28;0.68;;;;;;;-0.57;57.29;99503.38;5030663;28;20060;-73
2022/01/05 00:33:44;;;;;;;9.32;0.60;;;;;;;-1.58;59.71;99504.72;5008977;28;20033;-73
2022/01/05 00:36:09;;;;;;;2.55;1.08;;;;;;;-1.45;59.68;99496.03;5014674;28;20033;-74
2022/01/05 00:38:35;;;;;;;4.15;0.20;;;;;;;-0.48;56.57;99493.81;5027725;28;20413;-73
2022/01/05 00:41:01;;;;;;;2.13;0.40;;;;;;;-0.38;56.58;99483.34;5029795;28;20359;-75
2022/01/05 00:43:27;;;;;;;5.80;0.40;;;;;;;-0.28;55.71;99473.78;5019477;28;20094;-74
2022/01/05 00:45:52;;;;;;;18.58;1.70;;;;;;;-0.54;56.66;99475.97;5026552;28;20041;-73
2022/01/05 00:48:17;;;;;;;8.10;0.57;;;;;;;-0.47;56.38;99469.84;5019463;28;20527;-73
2022/01/05 00:50:43;;;;;;;4.88;0.20;;;;;;;-0.19;54.91;99470.19;5028489;28;20599;-73
2022/01/05 00:53:09;;;;;;;4.65;0.35;;;;;;;-0.62;56.03;99468.38;5028503;28;20470;-73
2022/01/05 00:55:34;;;;;;;9.15;0.30;;;;;;;-0.53;55.90;99475.06;5026572;28;20473;-73
2022/01/05 00:57:59;;;;;;;4.88;0.93;;;;;;;-0.25;55.23;99489.13;5029346;28;20057;-74
2022/01/05 01:00:25;;;;;;;6.38;1.00;;;;;;;-0.30;55.80;99490.06;5030739;28;20025;-73
2022/01/05 01:02:51;;;;;;;6.30;0.68;;;;;;;0.17;54.29;99486.66;5029654;28;20415;-72
2022/01/05 01:05:19;;;;;;;12.50;0.40;;;;;;;-0.15;54.99;99487.25;5027926;28;20538;-74
2022/01/05 01:07:45;;;;;;;4.70;0.22;;;;;;;-0.22;55.60;99478.81;5025691;28;20132;-74
2022/01/05 01:10:11;;;;;;;3.55;0.60;;;;;;;0.11;54.81;99478.22;5012043;28;20156;-73
2022/01/05 01:12:38;;;;;;;1.33;0.20;;;;;;;-0.15;55.11;99480.41;5028912;28;20045;-74
2022/01/05 01:15:09;;;;;;;6.30;0.68;;;;;;;-0.19;55.00;99478.75;5026594;28;20045;-73
2022/01/05 01:17:34;;;;;;;8.70;1.00;;;;;;;-0.39;54.80;99471.41;5007786;28;20110;-73
2022/01/05 01:20:00;;;;;;;2.55;0.52;;;;;;;-0.84;56.16;99467.84;5011801;28;20041;-73
2022/01/05 01:22:29;;;;;;;4.03;0.47;;;;;;;-0.32;54.55;99467.00;5011977;28;20365;-74
2022/01/05 01:24:57;;;;;;;12.63;0.63;;;;;;;-0.74;56.06;99459.16;5014125;28;20208;-73
2022/01/05 01:27:25;;;;;;;4.13;0.73;;;;;;;-0.07;53.86;99457.13;5016451;28;20135;-73
2022/01/05 01:29:50;;;;;;;3.78;0.32;;;;;;;0.13;53.09;99459.31;5018100;28;21184;-72
2022/01/05 01:32:16;;;;;;;1.35;0.20;;;;;;;-0.26;54.19;99454.06;5016335;28;20096;-73
2022/01/05 01:34:44;;;;;;;7.78;0.45;;;;;;;-0.33;54.21;99457.59;5012916;28;20065;-72
2022/01/05 01:37:09;;;;;;;5.53;0.40;;;;;;;-0.29;54.24;99454.09;5030969;28;20045;-72
2022/01/05 01:39:37;;;;;;;6.05;0.10;;;;;;;-0.56;55.14;99447.75;5032275;28;20541;-72
2022/01/05 01:42:03;;;;;;;6.53;0.50;;;;;;;-0.31;53.89;99455.84;5029961;28;20053;-72
2022/01/05 01:44:28;;;;;;;8.57;1.23;;;;;;;-0.31;54.04;99452.44;5022717;28;20423;-72
2022/01/05 01:46:56;;;;;;;5.68;0.40;;;;;;;-0.13;53.34;99434.97;5021122;28;20033;-72
2022/01/05 01:49:24;;;;;;;1.92;0.40;;;;;;;-0.14;53.75;99424.75;5030727;28;20045;-72
2022/01/05 01:51:51;;;;;;;2.63;0.32;;;;;;;-0.47;54.34;99439.03;5014908;28;20060;-72
2022/01/05 01:54:17;;;;;;;3.13;0.28;;;;;;;-0.42;54.01;99429.53;5023864;28;20039;-72
2022/01/05 01:56:46;;;;;;;3.83;0.80;;;;;;;-0.61;54.90;99429.84;5018477;28;20037;-72
2022/01/05 01:59:12;;;;;;;4.47;0.65;;;;;;;-0.44;54.08;99438.97;5036015;28;20040;-73
2022/01/05 02:01:42;;;;;;;4.75;0.30;;;;;;;-0.74;54.90;99432.66;5019102;28;20033;-73
2022/01/05 02:04:08;;;;;;;1.08;0.20;;;;;;;-1.21;55.89;99441.03;5022879;28;20045;-74
2022/01/05 02:06:36;;;;;;;5.30;0.20;;;;;;;-0.53;54.44;99442.53;5032435;28;20033;-74
2022/01/05 02:09:04;;;;;;;8.80;0.30;;;;;;;-0.65;55.12;99448.75;5032754;28;20057;-74
2022/01/05 02:11:31;;;;;;;6.28;0.38;;;;;;;-0.52;54.69;99439.13;5014428;28;20032;-73
2022/01/05 02:13:57;;;;;;;6.50;0.38;;;;;;;-0.69;55.46;99441.97;5007939;28;20230;-74
2022/01/05 02:16:30;;;;;;;4.13;0.63;;;;;;;-0.74;55.46;99442.94;5016655;28;20434;-74
2022/01/05 02:18:59;;;;;;;4.00;0.60;;;;;;;-0.38;54.46;99441.44;5007520;28;20072;-73
2022/01/05 02:21:37;;;;;;;4.68;0.70;;;;;;;-0.85;56.17;99441.38;5036685;28;20041;-73
2022/01/05 02:24:05;;;;;;;6.63;0.50;;;;;;;-0.83;55.71;99437.06;5034261;28;20273;-76
2022/01/05 02:26:30;;;;;;;7.38;0.38;;;;;;;-0.99;56.21;99428.75;5034620;28;20244;-76
2022/01/05 02:28:56;;;;;;;3.97;0.38;;;;;;;-0.93;56.38;99430.38;5000632;28;20047;-77
2022/01/05 02:31:22;;;;;;;7.75;0.70;;;;;;;-1.12;57.24;99431.50;5032571;28;20029;-75
2022/01/05 02:33:51;;;;;;;4.35;0.55;;;;;;;-0.52;55.49;99438.28;5010593;28;20037;-76
2022/01/05 02:36:19;;;;;;;4.57;0.25;;;;;;;-0.44;55.17;99436.41;5030646;28;20032;-75
2022/01/05 02:38:50;;;;;;;5.40;0.30;;;;;;;-1.23;56.98;99445.31;5017800;28;20042;-74
2022/01/05 02:41:15;;;;;;;3.88;0.32;;;;;;;-0.59;55.67;99443.50;5033177;28;20095;-75
2022/01/05 02:43:45;;;;;;;8.05;1.48;;;;;;;-0.57;55.31;99438.38;5018008;28;20037;-74
2022/01/05 02:46:16;;;;;;;6.40;0.13;;;;;;;-0.09;54.23;99437.50;5013689;28;20048;-75
2022/01/05 02:48:45;;;;;;;10.10;0.20;;;;;;;-0.05;54.18;99442.53;5002695;28;20045;-75
2022/01/05 02:51:11;;;;;;;3.28;0.30;;;;;;;-0.09;53.90;99427.22;5031217;28;20036;-72
2022/01/05 02:53:40;;;;;;;5.72;1.15;;;;;;;-0.34;54.11;99432.81;5012939;28;20041;-72
2022/01/05 02:56:05;;;;;;;7.55;0.70;;;;;;;-0.05;54.02;99426.28;5031193;28;20041;-75
2022/01/05 02:58:31;;;;;;;11.95;0.52;;;;;;;-0.25;54.11;99427.50;5029928;28;20060;-74
2022/01/05 03:00:59;;;;;;;4.05;0.60;;;;;;;-0.18;53.42;99418.81;5032881;28;20131;-74
2022/01/05 03:03:24;;;;;;;11.05;0.90;;;;;;;0.19;52.72;99425.81;5017563;28;20052;-74
2022/01/05 03:05:50;;;;;;;9.18;0.40;;;;;;;-0.68;54.90;99420.56;5017488;28;20953;-74
2022/01/05 03:08:17;;;;;;;8.40;0.90;;;;;;;-0.21;54.42;99431.72;5030241;28;20057;-74
2022/01/05 03:10:42;;;;;;;2.55;0.55;;;;;;;-0.02;54.15;99429.63;5028390;28;20036;-74
2022/01/05 03:13:08;;;;;;;9.98;0.70;;;;;;;0.49;52.83;99449.16;5017385;28;20094;-75
2022/01/05 03:15:35;;;;;;;5.45;1.02;;;;;;;-0.27;55.72;99448.97;5030888;28;20492;-73
2022/01/05 03:18:03;;;;;;;12.57;0.70;;;;;;;-0.18;55.77;99448.78;5032916;28;20500;-74
2022/01/05 03:20:30;;;;;;;13.20;1.42;;;;;;;-0.38;57.11;99437.16;5032100;28;20056;-74
2022/01/05 03:22:58;;;;;;;11.15;0.45;;;;;;;-0.16;57.08;99447.03;5015184;28;20056;-74
2022/01/05 03:25:24;;;;;;;10.70;0.70;;;;;;;-0.38;57.96;99451.72;5026649;28;20531;-75
2022/01/05 03:27:52;;;;;;;8.60;0.47;;;;;;;-0.41;58.18;99449.22;5029448;28;20029;-75
2022/01/05 03:30:20;;;;;;;2.42;0.40;;;;;;;-0.36;58.05;99455.09;5012812;28;20498;-75
2022/01/05 03:33:09;;;;;;;6.75;1.10;;;;;;;-0.71;58.97;99453.97;5006543;28;20041;-75
2022/01/05 03:35:47;;;;;;;5.65;0.40;;;;;;;-0.88;59.81;99461.09;5029679;28;20483;-74
2022/01/05 03:38:15;;;;;;;3.83;0.30;;;;;;;-1.06;60.42;99452.81;5032234;28;20045;-74
2022/01/05 03:40:42;;;;;;;3.28;0.30;;;;;;;-1.27;60.56;99463.34;5028259;28;20492;-75
2022/01/05 03:43:08;;;;;;;10.05;0.40;;;;;;;-1.12;59.79;99458.00;5019014;28;20056;-75
2022/01/05 03:45:35;;;;;;;8.18;0.60;;;;;;;-0.86;58.47;99461.91;5028524;28;20391;-74
2022/01/05 03:48:01;;;;;;;10.77;1.92;;;;;;;-1.33;59.63;99466.84;5012454;28;20509;-75
2022/01/05 03:50:27;;;;;;;6.47;0.50;;;;;;;-1.60;60.52;99447.53;5012462;28;20035;-75
2022/01/05 03:52:55;;;;;;;5.15;0.40;;;;;;;-1.80;60.75;99460.56;5000349;28;20045;-76
2022/01/05 03:55:20;;;;;;;3.75;1.10;;;;;;;-1.12;58.79;99447.72;5020967;28;20115;-76
2022/01/05 03:57:46;;;;;;;4.30;0.88;;;;;;;-1.28;58.94;99457.38;5028242;28;20186;-72
2022/01/05 04:00:12;;;;;;;15.15;0.73;;;;;;;-1.86;60.78;99450.44;5019846;28;20144;-73
2022/01/05 04:02:42;;;;;;;13.52;0.90;;;;;;;-2.19;62.15;99465.28;5019679;28;20036;-72
2022/01/05 04:05:08;;;;;;;16.73;0.63;;;;;;;-2.00;61.23;99465.91;5029583;28;20095;-72
2022/01/05 04:07:33;;;;;;;9.27;0.30;;;;;;;-1.33;59.72;99459.16;5030131;28;20492;-72
2022/01/05 04:10:02;;;;;;;9.73;1.67;;;;;;;-2.29;62.40;99454.31;5029244;28;20036;-71
2022/01/05 04:12:27;;;;;;;11.25;0.70;;;;;;;-1.84;61.22;99446.97;5015281;28;20306;-72
2022/01/05 04:14:53;;;;;;;1.95;0.25;;;;;;;-1.55;60.61;99453.47;5016173;28;20033;-72
2022/01/05 04:17:26;;;;;;;4.35;0.65;;;;;;;-1.83;61.26;99448.66;5012966;28;20040;-72
2022/01/05 04:19:52;;;;;;;8.18;1.20;;;;;;;-1.02;59.33;99433.94;5030462;28;20094;-73
2022/01/05 04:22:17;;;;;;;9.13;0.68;;;;;;;-0.97;59.29;99427.03;5028909;28;20527;-72
2022/01/05 04:24:43;;;;;;;6.45;0.77;;;;;;;-1.18;60.08;99432.44;5028124;28;20036;-73
2022/01/05 04:27:10;;;;;;;9.52;0.68;;;;;;;-0.85;59.07;99435.41;5028410;28;20499;-72
2022/01/05 04:29:36;;;;;;;8.43;0.60;;;;;;;-0.85;59.50;99427.69;5013187;28;20294;-73
2022/01/05 04:32:03;;;;;;;8.63;0.70;;;;;;;-1.54;61.43;99426.97;5029365;28;20152;-73
2022/01/05 04:34:28;;;;;;;8.25;1.08;;;;;;;-0.88;59.75;99425.19;5017915;28;20049;-71
2022/01/05 04:36:54;;;;;;;6.30;0.40;;;;;;;-1.00;59.99;99421.09;5025330;28;20055;-75
2022/01/05 04:39:19;;;;;;;10.20;1.77;;;;;;;-0.77;60.36;99413.88;5020672;28;20030;-75
2022/01/05 04:41:44;;;;;;;14.73;0.95;;;;;;;-0.79;61.06;99410.50;5018299;28;20037;-74
2022/01/05 04:44:10;;;;;;;9.65;0.77;;;;;;;-0.76;61.54;99409.59;5019467;28;20087;-74
2022/01/05 04:46:41;;;;;;;11.02;1.30;;;;;;;-0.91;61.73;99399.56;5028884;28;20037;-75
2022/01/05 04:49:06;;;;;;;11.65;0.93;;;;;;;-0.63;61.65;99400.81;5012332;28;20051;-75
2022/01/05 04:51:32;;;;;;;7.97;1.13;;;;;;;-0.38;60.98;99397.81;5026874;28;20037;-75
2022/01/05 04:53:57;;;;;;;8.60;0.63;;;;;;;0.07;59.03;99402.91;5028365;28;20043;-74
2022/01/05 04:56:23;;;;;;;9.10;0.32;;;;;;;-0.43;61.03;99400.44;5018402;28;20041;-75
2022/01/05 04:58:50;;;;;;;11.73;2.28;;;;;;;-0.57;61.69;99400.72;5004361;28;20084;-74
2022/01/05 05:01:16;;;;;;;6.63;0.75;;;;;;;-0.06;60.54;99401.47;5031040;28;20075;-75
2022/01/05 05:03:41;;;;;;;11.73;0.63;;;;;;;-0.72;62.00;99383.00;5028670;28;20040;-74
2022/01/05 05:06:09;;;;;;;7.10;0.68;;;;;;;-0.17;60.82;99383.69;5019949;28;20272;-76
2022/01/05 05:08:37;;;;;;;9.77;1.48;;;;;;;-0.21;60.73;99376.94;5012407;28;20053;-74
2022/01/05 05:11:02;;;;;;;6.95;0.90;;;;;;;-0.23;61.06;99376.97;5029691;28;20068;-76
2022/01/05 05:13:28;;;;;;;13.73;1.23;;;;;;;0.07;59.74;99383.19;5026643;28;20491;-77
2022/01/05 05:15:56;;;;;;;10.90;1.38;;;;;;;-0.24;60.70;99377.84;5028602;28;20030;-74
2022/01/05 05:18:21;;;;;;;6.93;0.80;;;;;;;-0.42;61.53;99367.91;5029086;28;20052;-75
2022/01/05 05:20:49;;;;;;;12.93;0.70;;;;;;;-0.39;60.88;99370.44;5026229;28;20029;-75
2022/01/05 05:23:14;;;;;;;9.65;0.50;;;;;;;-0.41;61.55;99374.75;5028817;28;20049;-75
2022/01/05 05:25:40;;;;;;;13.95;0.60;;;;;;;-0.03;59.76;99370.59;5027952;28;20033;-73
2022/01/05 05:28:06;;;;;;;8.13;1.05;;;;;;;-0.23;60.91;99369.28;5028481;28;20427;-73
2022/01/05 05:30:33;;;;;;;12.43;1.05;;;;;;;-0.23;61.14;99376.13;5026920;28;20423;-72
2022/01/05 05:33:01;;;;;;;6.85;0.98;;;;;;;0.03;60.35;99380.72;5017290;28;20041;-73
2022/01/05 05:35:27;;;;;;;3.25;0.95;;;;;;;0.26;59.33;99383.69;5025066;28;20033;-73
2022/01/05 05:37:56;;;;;;;3.00;0.38;;;;;;;-0.10;60.42;99375.03;5028388;28;20160;-73
2022/01/05 05:40:22;;;;;;;14.38;0.95;;;;;;;0.02;60.53;99379.06;5021139;28;20040;-73
2022/01/05 05:42:48;;;;;;;2.97;0.17;;;;;;;-0.08;60.55;99370.69;5028272;28;20490;-73
2022/01/05 05:45:14;;;;;;;7.15;0.63;;;;;;;0.10;59.62;99366.91;5011943;28;20215;-73
2022/01/05 05:47:39;;;;;;;6.90;0.30;;;;;;;0.12;60.05;99370.25;5026021;28;20041;-73
2022/01/05 05:50:06;;;;;;;18.30;1.45;;;;;;;0.35;59.48;99379.22;5028403;28;20033;-73
2022/01/05 05:52:35;;;;;;;6.30;0.82;;;;;;;0.27;59.77;99367.38;5027196;28;20053;-73
2022/01/05 05:55:03;;;;;;;7.70;0.43;;;;;;;0.22;60.24;99364.06;5029809;28;20418;-73
2022/01/05 05:57:29;;;;;;;7.97;0.93;;;;;;;0.17;60.25;99371.03;5000444;28;20578;-74
2022/01/05 05:59:57;;;;;;;13.15;1.02;;;;;;;-0.11;61.02;99357.06;5024727;28;20204;-74
2022/01/05 06:02:22;;;;;;;14.73;0.95;;;;;;;0.50;59.48;99366.00;5011506;28;20103;-73
2022/01/05 06:04:47;;;;;;;13.27;0.98;;;;;;;-0.22;61.78;99373.50;5027485;28;20052;-73
2022/01/05 06:07:16;;;;;;;12.00;2.50;;;;;;;-0.11;61.44;99368.16;5010426;28;20073;-73
2022/01/05 06:09:41;;;;;;;7.55;0.35;;;;;;;0.36;60.02;99373.19;5015309;28;20605;-72
2022/01/05 06:12:07;;;;;;;7.68;0.63;;;;;;;-0.28;61.92;99371.09;5027738;28;20056;-72
2022/01/05 06:14:32;;;;;;;9.60;0.65;;;;;;;0.54;59.55;99389.94;5029459;28;20233;-72
2022/01/05 06:16:58;;;;;;;11.80;0.82;;;;;;;0.10;61.25;99387.47;5027433;28;20257;-73
2022/01/05 06:19:24;;;;;;;5.25;0.50;;;;;;;0.03;61.30;99380.72;5032116;28;20037;-72
2022/01/05 06:21:50;;;;;;;6.35;0.70;;;;;;;0.23;60.90;99378.63;5022224;28;20060;-72
2022/01/05 06:24:16;;;;;;;6.20;0.93;;;;;;;-0.20;62.14;99382.03;5006440;28;20043;-71
2022/01/05 06:26:44;;;;;;;12.43;0.63;;;;;;;-0.25;62.59;99365.88;5023916;28;20037;-72
2022/01/05 06:29:13;;;;;;;11.02;0.52;;;;;;;0.20;61.12;99375.25;5032113;28;20523;-73
2022/01/05 06:31:39;;;;;;;5.57;0.65;;;;;;;-0.32;62.72;99354.03;5012962;28;20033;-73
2022/01/05 06:34:05;;;;;;;11.20;0.68;;;;;;;0.04;62.00;99372.16;5021810;28;20411;-73
2022/01/05 06:36:32;;;;;;;3.88;0.50;;;;;;;-0.02;62.00;99382.56;5013175;28;20036;-73
2022/01/05 06:39:01;;;;;;;5.55;0.68;;;;;;;-0.17;61.90;99363.16;5029708;28;20335;-73
2022/01/05 06:41:27;;;;;;;6.60;0.35;;;;;;;0.06;61.43;99366.13;5032074;28;20036;-73
2022/01/05 06:43:55;;;;;;;4.68;0.47;;;;;;;-0.29;61.96;99369.38;5031160;28;20060;-73
2022/01/05 06:46:23;;;;;;;3.33;0.50;;;;;;;0.39;59.77;99362.84;5020573;28;20475;-73
2022/01/05 06:48:48;;;;;;;4.93;0.50;;;;;;;-0.03;61.16;99371.44;5032083;28;20552;-73
2022/01/05 06:51:14;;;;;;;7.00;0.70;;;;;;;-0.38;62.48;99380.66;5031918;28;20373;-73
2022/01/05 06:53:42;;;;;;;5.82;0.40;;;;;;;0.07;61.09;99377.22;5032609;28;20590;-73
2022/01/05 06:56:07;;;;;;;7.00;0.65;;;;;;;-0.10;61.58;99379.28;5029423;28;20033;-73
2022/01/05 06:58:35;;;;;;;6.38;0.85;;;;;;;-0.13;61.79;99382.75;5030303;28;20049;-73
2022/01/05 07:01:01;;;;;;;10.32;0.40;;;;;;;0.03;61.58;99380.72;5030080;28;20037;-72
2022/01/05 07:03:26;;;;;;;4.78;0.20;;;;;;;-0.43;63.06;99372.22;5015200;28;20056;-73
2022/01/05 07:05:52;;;;;;;5.78;0.50;;;;;;;-0.06;62.31;99376.63;5026462;28;20037;-73
2022/01/05 07:08:18;;;;;;;3.80;0.50;;;;;;;-0.07;62.51;99376.69;5021934;28;20056;-73
2022/01/05 07:10:45;;;;;;;2.00;0.65;;;;;;;-0.01;62.76;99400.50;5029770;28;20377;-72
2022/01/05 07:13:11;;;;;;;14.38;1.23;;;;;;;0.08;61.82;99391.78;5017483;28;20054;-73
2022/01/05 07:15:37;;;;;;;4.90;0.50;;;;;;;0.22;62.36;99392.31;5030527;28;20037;-74
2022/01/05 07:18:03;;;;;;;2.80;0.20;;;;;;;0.33;61.60;99392.09;5031082;28;20528;-73
2022/01/05 07:20:28;;;;;;;4.45;0.35;;;;;;;0.48;61.06;99407.19;4999992;28;20086;-73
2022/01/05 07:22:54;;;;;;;5.03;1.00;;;;;;;0.78;60.61;99397.09;5012298;28;20422;-73
2022/01/05 07:25:19;;;;;;;10.57;0.50;;;;;;;0.15;62.41;99395.91;5035049;28;20072;-73
2022/01/05 07:27:44;;;;;;;1.35;0.20;;;;;;;0.32;61.90;99384.41;5008398;28;21530;-73
2022/01/05 07:30:11;;;;;;;5.90;0.40;;;;;;;0.75;60.88;99401.44;5022509;28;20029;-73
2022/01/05 07:32:40;;;;;;;3.67;0.20;;;;;;;0.75;60.28;99402.31;5026938;28;20507;-73
2022/01/05 07:35:07;;;;;;;11.25;0.50;;;;;;;0.68;60.70;99414.47;5029593;28;20117;-75
2022/01/05 07:37:32;;;;;;;2.25;0.20;;;;;;;1.17;59.15;99398.75;5016425;28;20055;-74
2022/01/05 07:39:58;;;;;;;4.18;0.40;;;;;;;0.44;61.27;99409.88;5030198;28;20029;-74
2022/01/05 07:42:23;;;;;;;4.00;0.38;;;;;;;1.09;59.74;99407.50;5019103;28;20127;-76
2022/01/05 07:44:50;;;;;;;3.20;0.20;;;;;;;0.51;61.28;99411.44;5027721;28;20045;-76
2022/01/05 07:47:15;;;;;;;4.10;0.38;;;;;;;0.35;61.83;99404.94;5022058;28;20439;-75
2022/01/05 07:49:43;;;;;;;3.55;0.30;;;;;;;0.82;59.80;99409.00;4998497;28;20036;-77
2022/01/05 07:52:12;;;;;;;2.22;0.65;;;;;;;1.17;59.11;99414.19;5031636;28;20068;-73
2022/01/05 07:54:41;;;;;;;8.70;0.43;;;;;;;0.22;61.65;99412.88;5027939;28;20107;-74
2022/01/05 07:57:06;;;;;;;7.60;0.50;;;;;;;-0.14;63.42;99405.03;5028871;28;20060;-75
2022/01/05 07:59:31;;;;;;;8.82;1.13;;;;;;;0.82;60.30;99403.03;5018190;28;20029;-74
2022/01/05 08:01:57;;;;;;;3.85;0.43;;;;;;;0.72;60.92;99402.38;5005879;28;20112;-74
2022/01/05 08:04:22;;;;;;;5.00;1.13;;;;;;;0.45;61.75;99403.84;5029445;28;20917;-78
2022/01/05 08:06:48;;;;;;;12.15;0.50;;;;;;;0.78;60.67;99404.81;5013164;28;20040;-74
2022/01/05 08:09:13;;;;;;;12.23;1.65;;;;;;;1.19;59.57;99399.56;5017812;28;20060;-76
2022/01/05 08:11:39;;;;;;;7.63;0.55;;;;;;;0.68;61.12;99406.75;5028810;28;20065;-77
2022/01/05 08:14:04;;;;;;;6.40;0.73;;;;;;;1.18;59.77;99397.88;5029809;28;20149;-72
2022/01/05 08:16:30;;;;;;;9.88;0.88;;;;;;;1.11;59.79;99398.03;5031683;28;20033;-74
2022/01/05 08:18:56;;;;;;;12.10;1.15;;;;;;;1.30;59.51;99395.84;5012054;28;20511;-73
2022/01/05 08:21:22;;;;;;;8.80;0.73;;;;;;;1.05;60.34;99394.75;5031040;28;20040;-72
2022/01/05 08:23:48;;;;;;;7.97;0.82;;;;;;;1.59;58.60;99396.00;5014199;28;20552;-72
2022/01/05 08:26:14;;;;;;;7.18;0.57;;;;;;;1.56;59.08;99390.94;5026662;28;20083;-72
2022/01/05 08:28:39;;;;;;;15.32;1.35;;;;;;;1.50;59.40;99392.75;5018556;28;20046;-73
2022/01/05 08:31:05;;;;;;;6.00;0.90;;;;;;;1.02;60.58;99403.41;5018182;28;20265;-72
2022/01/05 08:33:31;;;;;;;6.78;0.55;;;;;;;1.26;60.35;99393.38;5029691;28;20048;-73
2022/01/05 08:35:57;;;;;;;9.43;1.33;;;;;;;1.83;58.73;99385.03;5028028;28;20045;-73
2022/01/05 08:38:22;;;;;;;9.18;1.60;;;;;;;1.82;58.19;99393.66;5028381;28;20040;-72
2022/01/05 08:40:50;;;;;;;7.03;0.98;;;;;;;1.55;59.18;99390.09;5013313;28;20452;-73
2022/01/05 08:43:16;;;;;;;7.72;1.23;;;;;;;1.10;60.72;99393.78;5015557;28;20480;-73
2022/01/05 08:45:43;;;;;;;4.50;0.35;;;;;;;1.46;59.69;99400.59;5028094;28;20068;-73
2022/01/05 08:48:10;;;;;;;4.55;0.73;;;;;;;2.01;57.88;99388.81;5011407;28;20057;-73
2022/01/05 08:50:36;;;;;;;9.98;1.10;;;;;;;1.74;59.29;99387.84;5012780;28;20036;-74
2022/01/05 08:53:02;;;;;;;7.38;0.55;;;;;;;1.85;59.04;99387.56;5028711;28;20072;-73
2022/01/05 08:55:35;;;;;;;5.10;0.75;;;;;;;1.02;62.17;99385.38;5028028;28;20033;-74
2022/01/05 08:58:02;;;;;;;6.75;0.57;;;;;;;2.03;59.24;99391.38;5017220;28;20043;-74
2022/01/05 09:00:28;;;;;;;13.63;1.02;;;;;;;1.93;59.68;99395.94;5027983;28;20043;-74
2022/01/05 09:02:56;;;;;;;8.65;0.95;;;;;;;2.22;58.93;99391.66;5030218;28;20118;-73
2022/01/05 09:05:22;;;;;;;4.88;0.93;;;;;;;1.65;59.77;99399.25;5011739;28;20029;-74
2022/01/05 09:07:48;;;;;;;3.78;0.57;;;;;;;1.69;60.65;99430.94;5026920;28;20044;-73
2022/01/05 09:10:16;;;;;;;2.97;0.22;;;;;;;0.73;62.54;99457.25;5030695;28;20060;-74
2022/01/05 09:12:43;;;;;;;2.35;0.10;;;;;;;0.73;62.43;99476.09;5016347;28;20094;-74
2022/01/05 09:15:09;;;;;;;1.88;0.05;;;;;;;0.68;59.83;99463.34;5023302;28;20033;-75
2022/01/05 09:17:40;;;;;;;3.25;0.13;;;;;;;0.99;58.78;99478.09;5027368;28;20069;-74
2022/01/05 09:20:07;;;;;;;0.50;0.22;;;;;;;1.24;57.52;99473.22;5029267;28;20128;-74
2022/01/05 09:22:37;;;;;;;2.53;0.00;;;;;;;1.17;57.07;99470.81;5012863;28;20041;-74
2022/01/05 09:25:09;;;;;;;1.90;0.00;;;;;;;0.98;57.71;99450.66;4999194;28;20041;-74
2022/01/05 09:27:36;;;;;;;0.45;0.10;;;;;;;1.13;56.86;99446.88;5012805;28;20073;-75
2022/01/05 09:30:04;;;;;;;2.28;0.52;;;;;;;1.56;56.24;99451.00;5028054;28;20503;-75
2022/01/05 09:32:32;;;;;;;0.60;0.03;;;;;;;1.63;56.20;99451.69;5011487;28;20487;-73
2022/01/05 09:35:00;;;;;;;0.93;0.00;;;;;;;1.58;56.40;99463.84;5029879;28;20032;-75
2022/01/05 09:37:31;;;;;;;0.55;0.10;;;;;;;1.61;55.73;99467.19;5024890;28;20471;-75
2022/01/05 09:42:43;;;;;;;0.15;0.00;;;;;;;0.85;57.01;99473.22;5026934;28;20557;-74
2022/01/05 09:45:22;;;;;;;0.63;0.10;;;;;;;1.39;55.46;99491.75;5025614;28;20034;-73
2022/01/05 09:48:13;;;;;;;0.85;0.10;;;;;;;1.51;56.37;99501.78;5015055;28;20416;-74
2022/01/05 09:50:50;;;;;;;2.25;0.82;;;;;;;1.16;57.06;99520.59;5027355;28;20041;-74
2022/01/05 09:53:17;;;;;;;2.45;0.20;;;;;;;0.51;58.96;99516.84;5026800;28;20099;-72
2022/01/05 09:55:42;;;;;;;2.78;0.00;;;;;;;0.22;59.58;99507.13;5026395;28;20060;-75
2022/01/05 09:58:10;;;;;;;5.50;0.00;;;;;;;0.19;59.72;99520.88;5012776;28;20524;-71
2022/01/05 10:00:38;;;;;;;0.75;0.20;;;;;;;0.45;59.42;99522.94;5028583;28;20037;-74
2022/01/05 10:03:07;;;;;;;3.92;0.20;;;;;;;1.01;57.92;99507.19;5028613;28;20057;-74
2022/01/05 10:05:37;;;;;;;2.05;0.15;;;;;;;1.00;57.59;99509.81;5017988;28;20046;-73
2022/01/05 10:08:04;;;;;;;3.33;0.52;;;;;;;0.96;57.57;99509.03;5030589;28;20060;-71
2022/01/05 10:10:34;;;;;;;5.40;0.20;;;;;;;0.45;59.36;99514.38;5028446;28;20032;-73
2022/01/05 10:13:02;;;;;;;1.55;0.32;;;;;;;0.44;59.67;99517.84;5013680;28;20060;-74
2022/01/05 10:15:28;;;;;;;7.38;0.30;;;;;;;1.09;57.58;99525.03;5029903;28;20033;-74
2022/01/05 10:18:11;;;;;;;1.35;0.17;;;;;;;1.23;58.09;99522.16;5020670;28;20071;-74
2022/01/05 10:21:01;;;;;;;1.48;0.10;;;;;;;1.42;58.09;99528.59;5014614;28;20034;-74
2022/01/05 10:23:52;;;;;;;0.98;0.95;;;;;;;1.86;57.44;99529.25;5009667;28;20045;-75
2022/01/05 10:26:20;;;;;;;11.95;0.35;;;;;;;1.44;58.67;99544.00;5017098;28;20041;-72
2022/01/05 10:28:52;;;;;;;4.05;1.38;;;;;;;1.55;58.96;99566.91;5027984;28;20048;-73
2022/01/05 10:31:24;;;;;;;1.70;0.10;;;;;;;1.11;59.49;99556.75;5028990;28;20054;-72
2022/01/05 10:33:50;;;;;;;3.28;0.40;;;;;;;1.48;57.71;99549.06;5012782;28;20488;-73
2022/01/05 10:36:16;;;;;;;4.95;0.30;;;;;;;1.75;57.14;99541.53;5029216;28;20041;-74
2022/01/05 10:38:55;;;;;;;10.82;0.50;;;;;;;1.61;56.94;99536.72;5027389;28;20671;-73
2022/01/05 10:41:24;;;;;;;5.43;0.20;;;;;;;1.87;56.04;99535.25;5015355;28;20056;-72
2022/01/05 10:44:10;;;;;;;5.85;0.20;;;;;;;1.55;56.60;99543.75;5018403;28;20119;-73
2022/01/05 10:46:44;;;;;;;11.32;1.00;;;;;;;1.95;55.86;99543.59;5014166;28;20056;-72
2022/01/05 10:49:12;;;;;;;3.67;0.35;;;;;;;2.21;55.28;99542.94;5028049;28;20052;-73
2022/01/05 10:51:38;;;;;;;1.75;0.65;;;;;;;2.42;55.31;99575.03;5005087;28;20578;-73
2022/01/05 10:54:14;;;;;;;3.80;0.28;;;;;;;2.60;55.13;99586.59;5014622;28;20053;-74
2022/01/05 10:56:43;;;;;;;4.22;1.08;;;;;;;2.28;55.24;99584.88;5028438;28;20041;-73
2022/01/05 10:59:10;;;;;;;5.38;0.40;;;;;;;2.00;56.61;99587.28;5028551;28;20043;-72
2022/01/05 11:01:36;;;;;;;6.97;0.43;;;;;;;2.07;56.11;99568.22;5013985;28;20041;-73
2022/01/05 11:04:22;;;;;;;8.75;0.50;;;;;;;2.47;55.69;99572.34;5012572;28;20052;-73
2022/01/05 11:07:03;;;;;;;7.13;0.65;;;;;;;2.52;55.92;99591.94;5027636;28;20131;-73
2022/01/05 11:09:33;;;;;;;10.77;1.50;;;;;;;2.38;56.58;99588.03;5013716;28;20454;-73
2022/01/05 11:12:00;;;;;;;10.32;2.20;;;;;;;2.62;55.89;99577.03;5012861;28;20033;-73
2022/01/05 11:14:37;;;;;;;7.72;0.45;;;;;;;2.40;55.79;99594.00;5012938;28;20061;-73
2022/01/05 11:17:05;;;;;;;9.82;0.77;;;;;;;2.64;54.65;99607.97;5028489;28;20052;-74
2022/01/05 11:19:33;;;;;;;2.10;0.30;;;;;;;2.84;54.30;99620.31;5029233;28;20561;-73
2022/01/05 11:22:17;;;;;;;5.85;0.57;;;;;;;2.10;56.05;99624.84;5011482;28;20495;-74
2022/01/05 11:24:51;;;;;;;12.13;0.57;;;;;;;2.51;56.03;99616.06;5029401;28;20067;-73
2022/01/05 11:27:22;;;;;;;18.27;1.15;;;;;;;2.56;54.77;99608.19;5028003;28;20045;-74
2022/01/05 11:29:51;;;;;;;11.25;2.10;;;;;;;2.81;54.45;99604.94;5012877;28;20033;-74
2022/01/05 11:32:23;;;;;;;4.45;0.43;;;;;;;2.69;54.30;99596.66;5023043;28;20076;-74
2022/01/05 11:34:50;;;;;;;19.35;1.70;;;;;;;2.52;55.10;99596.25;5017444;28;20459;-74
2022/01/05 11:37:21;;;;;;;10.02;1.63;;;;;;;2.84;55.19;99612.59;5012049;28;20045;-73
2022/01/05 11:39:49;;;;;;;8.43;0.95;;;;;;;2.97;54.53;99604.44;5027055;28;20491;-74
2022/01/05 11:42:18;;;;;;;5.35;0.85;;;;;;;3.50;53.58;99610.69;5028832;28;20526;-74